createdAt,value
2022-12-06T00:01:50.644Z,1.60
2022-12-06T00:03:56.014Z,1.60
2022-12-06T00:06:01.150Z,1.60
2022-12-06T00:08:03.803Z,1.70
2022-12-06T00:10:08.422Z,1.70
2022-12-06T00:12:11.602Z,1.60
2022-12-06T00:14:15.434Z,1.60
2022-12-06T00:16:19.813Z,1.60
2022-12-06T00:18:22.606Z,1.60
2022-12-06T00:20:25.110Z,1.60
2022-12-06T00:22:27.711Z,1.60
2022-12-06T00:24:30.230Z,1.60
2022-12-06T00:26:34.572Z,1.60
2022-12-06T00:28:37.734Z,1.60
2022-12-06T00:30:40.731Z,1.70
2022-12-06T00:32:43.284Z,1.60
2022-12-06T00:34:46.261Z,1.70
2022-12-06T00:36:48.803Z,1.70
2022-12-06T00:38:51.270Z,1.70
2022-12-06T00:40:58.718Z,1.70
2022-12-06T00:43:01.270Z,1.70
2022-12-06T00:45:04.547Z,1.70
2022-12-06T00:47:07.018Z,1.70
2022-12-06T00:49:09.900Z,1.70
2022-12-06T00:51:13.201Z,1.70
2022-12-06T00:53:16.268Z,1.70
2022-12-06T00:55:18.981Z,1.70
2022-12-06T00:57:21.847Z,1.70
2022-12-06T00:59:24.333Z,1.70
2022-12-06T01:01:28.321Z,1.70
2022-12-06T01:03:34.964Z,1.70
2022-12-06T01:05:36.906Z,1.70
2022-12-06T01:08:00.740Z,1.70
2022-12-06T01:10:08.136Z,1.70
2022-12-06T01:12:11.094Z,1.70
2022-12-06T01:14:13.633Z,1.70
2022-12-06T01:16:17.209Z,1.70
2022-12-06T01:18:19.785Z,1.70
2022-12-06T01:20:22.281Z,1.70
2022-12-06T01:22:24.794Z,1.70
2022-12-06T01:24:27.261Z,1.70
2022-12-06T01:26:30.461Z,1.70
2022-12-06T01:28:33.493Z,1.70
2022-12-06T01:30:38.064Z,1.70
2022-12-06T01:32:40.609Z,1.70
2022-12-06T01:34:44.517Z,1.70
2022-12-06T01:36:47.026Z,1.70
2022-12-06T01:38:50.715Z,1.70
2022-12-06T01:40:53.224Z,1.70
2022-12-06T01:42:56.057Z,1.70
2022-12-06T01:44:59.346Z,1.70
2022-12-06T01:47:02.054Z,1.70
2022-12-06T01:49:08.508Z,1.80
2022-12-06T01:51:12.092Z,1.80
2022-12-06T01:53:15.095Z,1.80
2022-12-06T01:55:18.736Z,1.80
2022-12-06T01:57:21.201Z,1.80
2022-12-06T01:59:25.060Z,1.80
2022-12-06T02:01:29.414Z,1.80
2022-12-06T02:03:33.233Z,1.70
2022-12-06T02:05:40.687Z,1.80
2022-12-06T02:07:41.973Z,1.80
2022-12-06T02:09:44.741Z,1.80
2022-12-06T02:11:47.414Z,1.80
2022-12-06T02:13:51.143Z,1.80
2022-12-06T02:15:55.965Z,1.80
2022-12-06T02:18:00.281Z,1.80
2022-12-06T02:20:09.269Z,1.80
2022-12-06T02:22:13.612Z,1.80
2022-12-06T02:24:47.497Z,1.80
2022-12-06T02:29:27.371Z,1.80
2022-12-06T02:31:32.048Z,1.90
2022-12-06T02:33:36.600Z,1.90
2022-12-06T02:35:40.252Z,1.90
2022-12-06T02:37:44.879Z,1.90
2022-12-06T02:39:49.447Z,1.90
2022-12-06T02:41:53.898Z,1.90
2022-12-06T02:43:58.253Z,1.90
2022-12-06T02:46:02.366Z,1.90
2022-12-06T02:48:08.008Z,1.90
2022-12-06T02:50:12.713Z,1.90
2022-12-06T02:52:16.991Z,1.90
2022-12-06T02:54:19.981Z,1.90
2022-12-06T02:56:22.767Z,1.90
2022-12-06T02:58:25.226Z,1.90
2022-12-06T03:00:33.509Z,1.90
2022-12-06T03:02:36.622Z,1.90
2022-12-06T03:04:46.985Z,1.90
2022-12-06T03:06:58.311Z,1.90
2022-12-06T03:09:03.782Z,1.90
2022-12-06T03:11:06.250Z,1.90
2022-12-06T03:13:11.233Z,2.00
2022-12-06T03:15:15.860Z,2.00
2022-12-06T03:17:21.084Z,2.00
2022-12-06T03:19:25.440Z,2.00
2022-12-06T03:21:29.942Z,2.00
2022-12-06T03:23:34.260Z,2.00
2022-12-06T03:25:37.402Z,2.00
2022-12-06T03:27:40.840Z,2.00
2022-12-06T03:29:45.347Z,2.00
2022-12-06T03:31:48.129Z,2.00
2022-12-06T03:33:52.682Z,2.00
2022-12-06T03:35:55.706Z,2.00
2022-12-06T03:37:59.980Z,2.00
2022-12-06T03:40:04.673Z,2.00
2022-12-06T03:42:07.860Z,2.00
2022-12-06T03:44:10.525Z,2.00
2022-12-06T03:46:14.644Z,2.00
2022-12-06T03:48:19.051Z,2.00
2022-12-06T03:50:23.449Z,2.00
2022-12-06T03:52:27.769Z,2.00
2022-12-06T03:54:30.351Z,1.90
2022-12-06T03:56:34.805Z,2.00
2022-12-06T03:58:37.313Z,2.00
2022-12-06T04:00:39.839Z,2.00
2022-12-06T04:02:42.323Z,2.00
2022-12-06T04:04:44.811Z,2.10
2022-12-06T04:06:47.315Z,2.10
2022-12-06T04:08:49.793Z,2.10
2022-12-06T04:10:52.310Z,2.10
2022-12-06T04:13:00.976Z,2.10
2022-12-06T04:15:04.549Z,2.10
2022-12-06T04:17:26.122Z,2.20
2022-12-06T04:19:28.622Z,2.20
2022-12-06T04:21:49.381Z,2.20
2022-12-06T04:23:52.244Z,2.20
2022-12-06T04:25:54.857Z,2.20
2022-12-06T04:28:15.321Z,2.20
2022-12-06T04:30:36.092Z,2.20
2022-12-06T04:32:56.718Z,2.20
2022-12-06T04:35:17.326Z,2.20
2022-12-06T04:37:38.104Z,2.10
2022-12-06T04:39:40.624Z,2.20
2022-12-06T04:42:00.942Z,2.20
2022-12-06T04:44:03.899Z,2.20
2022-12-06T04:46:06.603Z,2.20
2022-12-06T04:48:10.704Z,2.20
2022-12-06T04:50:13.228Z,2.20
2022-12-06T04:52:16.555Z,2.20
2022-12-06T04:54:19.893Z,2.30
2022-12-06T04:56:22.360Z,2.20
2022-12-06T04:58:24.901Z,2.20
2022-12-06T05:00:27.431Z,2.20
2022-12-06T05:02:29.940Z,2.20
2022-12-06T05:04:32.882Z,2.30
2022-12-06T05:06:35.499Z,2.30
2022-12-06T05:08:38.022Z,2.30
2022-12-06T05:10:40.876Z,2.30
2022-12-06T05:12:44.206Z,2.30
2022-12-06T05:14:46.796Z,2.30
2022-12-06T05:16:49.681Z,2.30
2022-12-06T05:18:52.281Z,2.20
2022-12-06T05:21:02.791Z,2.30
2022-12-06T05:23:05.784Z,2.30
2022-12-06T05:25:10.488Z,2.30
2022-12-06T05:27:15.972Z,2.30
2022-12-06T05:29:19.546Z,2.30
2022-12-06T05:31:23.244Z,2.30
2022-12-06T05:33:26.421Z,2.30
2022-12-06T05:35:29.782Z,2.30
2022-12-06T05:37:33.210Z,2.30
2022-12-06T05:39:36.702Z,2.30
2022-12-06T05:41:40.144Z,2.30
2022-12-06T05:43:43.717Z,2.30
2022-12-06T05:45:46.491Z,2.30
2022-12-06T05:47:50.142Z,2.30
2022-12-06T05:49:53.112Z,2.30
2022-12-06T05:52:01.195Z,2.30
2022-12-06T05:54:02.957Z,2.30
2022-12-06T05:56:08.528Z,2.40
2022-12-06T05:58:12.948Z,2.40
2022-12-06T06:00:17.201Z,2.40
2022-12-06T06:02:20.171Z,2.40
2022-12-06T06:04:22.750Z,2.40
2022-12-06T06:06:25.272Z,2.50
2022-12-06T06:08:29.401Z,2.40
2022-12-06T06:10:32.044Z,2.40
2022-12-06T06:12:34.604Z,2.40
2022-12-06T06:14:37.720Z,2.40
2022-12-06T06:16:41.718Z,2.50
2022-12-06T06:18:45.419Z,2.50
2022-12-06T06:20:52.809Z,2.50
2022-12-06T06:22:56.330Z,2.60
2022-12-06T06:24:59.927Z,2.60
2022-12-06T06:27:02.768Z,2.60
2022-12-06T06:29:05.427Z,2.60
2022-12-06T06:31:08.863Z,2.60
2022-12-06T06:33:11.662Z,2.60
2022-12-06T06:35:14.687Z,2.70
2022-12-06T06:37:17.624Z,2.60
2022-12-06T06:39:20.233Z,2.60
2022-12-06T06:41:23.640Z,2.60
2022-12-06T06:43:26.489Z,2.60
2022-12-06T06:45:29.655Z,2.60
2022-12-06T06:47:32.653Z,2.50
2022-12-06T06:49:35.531Z,2.60
2022-12-06T06:51:38.141Z,2.50
2022-12-06T06:53:41.112Z,2.50
2022-12-06T06:55:44.482Z,2.60
2022-12-06T06:57:54.956Z,2.60
2022-12-06T06:59:57.852Z,1.60
2022-12-06T07:02:01.037Z,2.60
2022-12-06T07:04:03.990Z,2.60
2022-12-06T07:06:09.081Z,2.60
2022-12-06T07:08:12.909Z,2.50
2022-12-06T07:10:16.768Z,2.60
2022-12-06T07:12:19.266Z,2.50
2022-12-06T07:14:21.987Z,2.60
2022-12-06T07:16:24.516Z,2.60
2022-12-06T07:18:27.393Z,2.60
2022-12-06T07:20:30.232Z,2.60
2022-12-06T07:22:34.509Z,2.60
2022-12-06T07:24:41.624Z,2.60
2022-12-06T07:26:41.293Z,2.70
2022-12-06T07:28:44.969Z,2.70
2022-12-06T07:30:48.380Z,2.70
2022-12-06T07:32:51.431Z,2.70
2022-12-06T07:34:54.156Z,2.70
2022-12-06T07:36:56.755Z,2.70
2022-12-06T07:38:59.966Z,2.70
2022-12-06T07:41:05.389Z,2.70
2022-12-06T07:43:27.713Z,2.80
2022-12-06T07:45:31.110Z,2.80
2022-12-06T07:47:35.985Z,2.80
2022-12-06T07:49:38.478Z,2.80
2022-12-06T07:51:41.273Z,2.80
2022-12-06T07:53:43.778Z,2.90
2022-12-06T07:55:46.817Z,2.90
2022-12-06T07:57:49.514Z,2.90
2022-12-06T07:59:52.200Z,2.60
2022-12-06T08:01:55.348Z,2.90
2022-12-06T08:03:59.327Z,3.00
2022-12-06T08:06:03.556Z,2.90
2022-12-06T08:08:07.051Z,3.00
2022-12-06T08:10:10.035Z,3.00
2022-12-06T08:12:12.718Z,3.00
2022-12-06T08:14:16.260Z,3.00
2022-12-06T08:31:20.711Z,3.20
2022-12-06T08:33:25.046Z,3.30
2022-12-06T08:35:27.498Z,3.30
2022-12-06T08:37:30.379Z,3.30
2022-12-06T08:39:33.068Z,3.30
2022-12-06T08:41:53.676Z,3.30
2022-12-06T08:43:56.726Z,3.40
2022-12-06T08:45:59.495Z,3.40
2022-12-06T08:48:02.686Z,3.20
2022-12-06T08:50:08.599Z,3.40
2022-12-06T08:52:11.543Z,3.40
2022-12-06T08:54:19.306Z,3.40
2022-12-06T08:56:23.029Z,3.50
2022-12-06T08:58:25.741Z,3.50
2022-12-06T09:00:28.482Z,3.50
2022-12-06T09:02:32.325Z,3.50
2022-12-06T09:04:35.090Z,3.50
2022-12-06T09:06:39.031Z,3.50
2022-12-06T09:08:41.702Z,3.50
2022-12-06T09:10:45.433Z,3.50
2022-12-06T09:12:48.114Z,3.60
2022-12-06T09:14:51.050Z,3.60
2022-12-06T09:16:53.961Z,3.70
2022-12-06T09:18:57.454Z,3.70
2022-12-06T09:20:59.990Z,3.60
2022-12-06T09:23:02.659Z,3.70
2022-12-06T09:25:05.957Z,3.70
2022-12-06T09:27:08.592Z,3.70
2022-12-06T09:29:11.314Z,3.80
2022-12-06T09:31:14.201Z,3.90
2022-12-06T09:33:17.061Z,3.90
2022-12-06T09:35:24.846Z,3.90
2022-12-06T09:37:25.531Z,3.90
2022-12-06T09:39:30.670Z,4.00
2022-12-06T09:41:37.584Z,4.00
2022-12-06T09:43:44.181Z,4.00
2022-12-06T09:46:15.113Z,3.90
2022-12-06T09:48:25.795Z,4.00
2022-12-06T09:50:30.375Z,4.00
2022-12-06T09:52:35.590Z,4.00
2022-12-06T09:54:51.794Z,4.00
2022-12-06T09:56:53.174Z,4.00
2022-12-06T09:59:06.256Z,4.00
2022-12-06T10:01:13.962Z,4.00
2022-12-06T10:03:34.662Z,4.10
2022-12-06T10:05:40.319Z,4.10
2022-12-06T10:07:46.263Z,4.10
2022-12-06T10:09:57.813Z,4.10
2022-12-06T10:12:08.937Z,4.10
2022-12-06T10:14:28.558Z,4.10
2022-12-06T10:16:54.922Z,4.10
2022-12-06T10:19:25.151Z,4.20
2022-12-06T10:22:00.579Z,4.20
2022-12-06T10:24:39.464Z,4.20
2022-12-06T10:26:55.981Z,4.20
2022-12-06T10:29:13.130Z,4.30
2022-12-06T10:31:42.370Z,4.30
2022-12-06T10:33:55.910Z,4.20
2022-12-06T10:36:08.174Z,4.30
2022-12-06T11:23:33.257Z,4.70
2022-12-06T11:25:58.430Z,2.90
2022-12-06T11:28:36.316Z,4.60
2022-12-06T11:31:03.383Z,4.70
2022-12-06T11:33:28.842Z,4.60
2022-12-06T11:35:55.432Z,4.70
2022-12-06T11:38:27.878Z,4.70
2022-12-06T11:40:51.983Z,4.70
2022-12-06T11:43:15.667Z,4.70
2022-12-06T11:45:39.406Z,4.70
2022-12-06T11:47:54.000Z,4.70
2022-12-06T11:50:19.653Z,4.70
2022-12-06T11:52:51.787Z,4.80
2022-12-06T11:55:40.010Z,4.80
2022-12-06T11:58:05.680Z,4.80
2022-12-06T12:00:37.520Z,4.80
2022-12-06T12:02:58.804Z,4.80
2022-12-06T12:05:31.434Z,4.80
2022-12-06T12:07:57.426Z,4.80
2022-12-06T12:10:29.112Z,4.90
2022-12-06T12:13:08.870Z,4.90
2022-12-06T12:15:40.102Z,4.90
2022-12-06T12:18:07.339Z,4.90
2022-12-06T12:20:37.243Z,4.90
2022-12-06T12:23:04.876Z,4.90
2022-12-06T12:25:46.821Z,4.90
2022-12-06T12:28:13.965Z,4.90
2022-12-06T12:30:33.010Z,4.90
2022-12-06T12:32:58.225Z,4.90
2022-12-06T12:35:37.029Z,5.00
2022-12-06T12:38:03.720Z,5.00
2022-12-06T12:40:37.463Z,5.00
2022-12-06T12:43:00.612Z,5.00
2022-12-06T12:45:47.159Z,5.00
2022-12-06T12:48:13.771Z,5.00
2022-12-06T12:50:34.976Z,5.00
2022-12-06T12:53:10.717Z,5.00
2022-12-06T12:55:41.806Z,5.00
2022-12-06T12:58:42.858Z,5.00
2022-12-06T13:03:51.207Z,5.00
2022-12-06T13:06:07.227Z,4.90
2022-12-06T13:08:33.000Z,4.90
2022-12-06T13:10:59.017Z,5.00
2022-12-06T13:13:19.016Z,5.00
2022-12-06T13:15:48.959Z,5.00
2022-12-06T13:18:23.618Z,5.00
2022-12-06T13:20:46.810Z,5.00
2022-12-06T13:23:12.612Z,5.00
2022-12-06T13:25:31.163Z,5.00
2022-12-06T13:27:46.576Z,5.00
2022-12-06T13:30:19.240Z,4.90
2022-12-06T13:32:39.968Z,5.00
2022-12-06T13:34:59.658Z,5.00
2022-12-06T13:37:15.904Z,5.00
2022-12-06T13:39:51.649Z,5.00
2022-12-06T13:42:24.140Z,4.90
2022-12-06T13:45:04.669Z,4.90
2022-12-06T13:47:42.209Z,4.90
2022-12-06T13:50:07.300Z,4.90
2022-12-06T13:52:26.833Z,4.90
2022-12-06T13:54:52.781Z,5.00
2022-12-06T13:57:21.327Z,4.90
2022-12-06T13:59:58.456Z,4.90
2022-12-06T14:02:31.580Z,4.90
2022-12-06T14:05:01.300Z,4.80
2022-12-06T14:07:28.937Z,4.80
2022-12-06T14:10:10.691Z,4.80
2022-12-06T14:12:35.593Z,4.80
2022-12-06T14:15:01.074Z,4.80
2022-12-06T14:20:21.913Z,4.70
2022-12-06T14:22:45.970Z,4.70
2022-12-06T14:25:15.335Z,4.70
2022-12-06T14:27:42.479Z,4.70
2022-12-06T14:30:23.523Z,4.70
2022-12-06T14:32:50.961Z,4.70
2022-12-06T14:35:23.234Z,4.80
2022-12-06T14:37:49.066Z,4.70
2022-12-06T14:40:37.735Z,4.70
2022-12-06T14:42:50.287Z,4.70
2022-12-06T14:45:23.912Z,4.70
2022-12-06T14:47:44.280Z,4.70
2022-12-06T14:50:20.263Z,4.60
2022-12-06T14:53:00.588Z,4.60
2022-12-06T14:55:34.664Z,4.60
2022-12-06T14:57:59.276Z,4.50
2022-12-06T15:00:31.543Z,4.50
2022-12-06T15:02:58.199Z,4.50
2022-12-06T15:05:37.270Z,4.30
2022-12-06T15:08:04.915Z,4.30
2022-12-06T15:10:54.700Z,4.30
2022-12-06T15:13:29.557Z,4.10
2022-12-06T15:16:01.518Z,4.10
2022-12-06T15:18:30.744Z,4.10
2022-12-06T15:20:54.814Z,4.00
2022-12-06T15:23:19.149Z,4.00
2022-12-06T15:25:44.542Z,4.00
2022-12-06T15:28:14.301Z,4.10
2022-12-06T15:30:53.263Z,4.20
2022-12-06T15:33:23.189Z,4.10
2022-12-06T15:35:50.913Z,4.20
2022-12-06T15:38:18.717Z,4.20
2022-12-06T15:40:43.536Z,4.20
2022-12-06T15:43:05.925Z,4.20
2022-12-06T15:45:23.176Z,4.20
2022-12-06T15:47:28.173Z,4.30
2022-12-06T15:49:45.744Z,4.30
2022-12-06T15:52:22.073Z,4.30
2022-12-06T15:54:50.569Z,4.20
2022-12-06T15:57:20.107Z,4.30
2022-12-06T15:59:44.063Z,4.30
2022-12-06T16:02:11.800Z,4.30
2022-12-06T16:04:39.097Z,4.30
2022-12-06T16:07:10.806Z,4.20
2022-12-06T16:09:43.854Z,4.20
2022-12-06T16:12:19.371Z,4.30
2022-12-06T16:14:46.272Z,4.30
2022-12-06T16:17:18.605Z,4.30
2022-12-06T16:19:38.513Z,4.30
2022-12-06T16:22:02.295Z,4.20
2022-12-06T16:24:29.904Z,4.20
2022-12-06T16:27:02.203Z,4.20
2022-12-06T16:29:31.885Z,4.10
2022-12-06T16:31:57.797Z,4.10
2022-12-06T16:34:22.560Z,4.20
2022-12-06T16:36:47.400Z,4.10
2022-12-06T16:39:14.697Z,4.10
2022-12-06T16:41:38.592Z,4.10
2022-12-06T16:43:48.408Z,4.00
2022-12-06T16:46:16.349Z,4.10
2022-12-06T16:48:33.391Z,4.00
2022-12-06T16:51:17.172Z,4.00
2022-12-06T16:53:54.108Z,4.00
2022-12-06T16:56:22.185Z,4.00
2022-12-06T16:58:42.544Z,4.00
2022-12-06T17:01:14.876Z,4.00
2022-12-06T17:03:34.566Z,3.90
2022-12-06T17:06:12.172Z,3.90
2022-12-06T17:08:35.881Z,3.90
2022-12-06T17:11:07.352Z,3.90
2022-12-06T17:13:42.531Z,3.90
2022-12-06T17:16:06.612Z,3.90
2022-12-06T17:18:23.464Z,3.90
2022-12-06T17:20:34.451Z,3.90
2022-12-06T17:22:55.554Z,3.90
2022-12-06T17:25:33.029Z,3.90
2022-12-06T17:27:53.575Z,3.90
2022-12-06T17:30:12.654Z,3.90
2022-12-06T17:32:22.241Z,4.40
2022-12-06T17:34:41.673Z,3.90
2022-12-06T17:37:05.686Z,3.90
2022-12-06T17:39:38.797Z,3.90
2022-12-06T17:42:21.692Z,3.90
2022-12-06T17:44:41.531Z,4.00
2022-12-06T17:47:03.956Z,3.90
2022-12-06T17:49:27.184Z,4.00
2022-12-06T17:51:56.514Z,3.90
2022-12-06T17:54:21.375Z,3.90
2022-12-06T17:56:50.723Z,3.90
2022-12-06T17:59:18.337Z,4.00
2022-12-06T18:02:15.093Z,4.00
2022-12-06T18:04:27.378Z,4.00
2022-12-06T18:06:58.110Z,4.10
2022-12-06T18:09:12.988Z,4.10
2022-12-06T18:11:31.831Z,4.10
2022-12-06T18:13:56.496Z,4.10
2022-12-06T18:16:15.424Z,4.10
2022-12-06T18:18:38.128Z,4.20
2022-12-06T18:21:03.161Z,4.10
2022-12-06T18:23:18.646Z,4.20
2022-12-06T18:25:44.305Z,4.20
2022-12-06T18:28:12.204Z,4.20
2022-12-06T18:30:32.968Z,4.10
2022-12-06T18:32:55.935Z,4.20
2022-12-06T18:35:34.702Z,4.20
2022-12-06T18:37:53.528Z,4.20
2022-12-06T18:40:16.868Z,4.20
2022-12-06T18:42:36.897Z,4.20
2022-12-06T18:45:00.639Z,4.20
2022-12-06T18:47:17.837Z,4.20
2022-12-06T18:49:31.189Z,4.20
2022-12-06T18:51:49.457Z,4.20
2022-12-06T18:54:15.030Z,4.20
2022-12-06T18:56:38.552Z,4.20
2022-12-06T18:58:59.855Z,4.20
2022-12-06T19:01:15.000Z,4.20
2022-12-06T19:03:34.373Z,4.20
2022-12-06T19:06:02.629Z,4.30
2022-12-06T19:08:08.415Z,4.30
2022-12-06T19:10:12.714Z,4.20
2022-12-06T19:12:15.258Z,4.30
2022-12-06T19:14:17.965Z,4.30
2022-12-06T19:16:21.096Z,4.20
2022-12-06T19:18:24.081Z,4.20
2022-12-06T19:20:27.359Z,4.30
2022-12-06T19:22:30.367Z,4.30
2022-12-06T19:24:34.063Z,4.30
2022-12-06T19:26:41.685Z,4.30
2022-12-06T19:28:47.258Z,4.30
2022-12-06T19:30:57.334Z,4.30
2022-12-06T19:33:00.085Z,4.30
2022-12-06T19:35:08.170Z,4.30
2022-12-06T19:37:07.922Z,4.20
2022-12-06T19:39:11.593Z,4.30
2022-12-06T19:41:15.352Z,4.30
2022-12-06T19:43:38.438Z,4.30
2022-12-06T19:45:41.693Z,4.30
2022-12-06T19:47:44.698Z,4.30
2022-12-06T19:49:47.237Z,4.30
2022-12-06T19:51:53.742Z,4.30
2022-12-06T19:53:57.779Z,4.30
2022-12-06T19:56:00.516Z,4.30
2022-12-06T19:58:03.840Z,4.30
2022-12-06T20:00:11.442Z,4.30
2022-12-06T20:02:15.505Z,4.30
2022-12-06T20:04:19.808Z,4.40
2022-12-06T20:06:24.423Z,4.40
2022-12-06T20:08:27.363Z,4.40
2022-12-06T20:10:29.945Z,4.40
2022-12-06T20:12:33.738Z,4.40
2022-12-06T20:14:39.234Z,4.40
2022-12-06T20:16:42.769Z,4.40
2022-12-06T20:18:46.220Z,4.50
2022-12-06T20:20:48.722Z,4.50
2022-12-06T20:22:51.526Z,4.40
2022-12-06T20:24:54.052Z,4.50
2022-12-06T20:26:57.038Z,4.50
2022-12-06T20:28:59.791Z,4.50
2022-12-06T20:31:04.562Z,4.50
2022-12-06T20:33:07.168Z,4.50
2022-12-06T20:35:10.083Z,4.50
2022-12-06T20:37:12.655Z,4.60
2022-12-06T20:39:19.283Z,4.50
2022-12-06T20:41:22.966Z,4.60
2022-12-06T20:43:25.481Z,4.60
2022-12-06T20:45:28.122Z,4.60
2022-12-06T20:47:30.760Z,4.60
2022-12-06T20:49:34.196Z,4.60
2022-12-06T20:51:37.291Z,4.60
2022-12-06T20:53:40.908Z,4.60
2022-12-06T20:55:43.860Z,4.60
2022-12-06T20:57:46.720Z,4.60
2022-12-06T20:59:50.941Z,4.60
2022-12-06T21:01:55.056Z,4.60
2022-12-06T21:04:00.191Z,4.70
2022-12-06T21:06:04.977Z,4.70
2022-12-06T21:08:09.320Z,4.70
2022-12-06T21:10:12.524Z,4.60
2022-12-06T21:12:15.090Z,4.70
2022-12-06T21:14:17.989Z,4.70
2022-12-06T21:16:21.646Z,4.70
2022-12-06T21:18:28.452Z,4.60
2022-12-06T21:20:29.441Z,4.70
2022-12-06T21:22:32.497Z,4.70
2022-12-06T21:24:35.204Z,4.70
2022-12-06T21:26:37.823Z,4.70
2022-12-06T21:28:40.335Z,4.70
2022-12-06T21:30:42.836Z,4.70
2022-12-06T21:32:45.353Z,4.70
2022-12-06T21:34:48.122Z,4.70
2022-12-06T21:36:50.616Z,4.70
2022-12-06T21:38:53.384Z,3.80
2022-12-06T21:41:01.437Z,4.70
2022-12-06T21:43:00.594Z,4.70
2022-12-06T21:45:04.075Z,4.70
2022-12-06T21:47:07.120Z,4.80
2022-12-06T21:49:10.280Z,4.80
2022-12-06T21:51:15.227Z,4.80
2022-12-06T21:53:17.971Z,4.80
2022-12-06T21:55:21.182Z,4.80
2022-12-06T21:57:24.717Z,4.80
2022-12-06T21:59:27.588Z,4.80
2022-12-06T22:01:32.333Z,4.90
2022-12-06T22:03:35.445Z,4.80
2022-12-06T22:05:39.901Z,4.90
2022-12-06T22:07:42.922Z,4.90
2022-12-06T22:09:46.116Z,4.90
2022-12-06T22:11:49.060Z,4.90
2022-12-06T22:13:52.651Z,4.90
2022-12-06T22:15:55.519Z,4.90
2022-12-06T22:17:58.254Z,4.90
2022-12-06T22:20:01.045Z,4.90
2022-12-06T22:22:03.941Z,4.90
2022-12-06T22:24:07.103Z,4.90
2022-12-06T22:26:10.730Z,5.00
2022-12-06T22:28:13.450Z,5.00
2022-12-06T22:30:16.392Z,4.90
2022-12-06T22:32:19.868Z,4.90
2022-12-06T22:34:22.881Z,5.00
2022-12-06T22:36:26.313Z,5.00
2022-12-06T22:38:29.001Z,5.00
2022-12-06T22:40:31.629Z,5.00
2022-12-06T22:42:34.336Z,5.10
2022-12-06T22:44:37.163Z,5.10
2022-12-06T22:46:39.881Z,5.00
2022-12-06T22:48:43.091Z,5.10
2022-12-06T22:50:45.689Z,5.00
2022-12-06T22:52:48.242Z,5.10
2022-12-06T22:54:50.893Z,5.10
2022-12-06T22:56:53.596Z,5.10
2022-12-06T22:58:56.779Z,5.10
2022-12-06T23:00:59.644Z,5.10
2022-12-06T23:03:02.225Z,5.10
2022-12-06T23:05:06.177Z,5.20
2022-12-06T23:07:08.948Z,5.20
2022-12-06T23:09:13.701Z,5.20
2022-12-06T23:11:19.091Z,5.20
2022-12-06T23:13:21.863Z,5.20
2022-12-06T23:15:24.538Z,5.20
2022-12-06T23:17:28.994Z,5.20
2022-12-06T23:19:32.061Z,5.20
2022-12-06T23:21:35.298Z,5.20
2022-12-06T23:23:49.445Z,5.20
2022-12-06T23:25:52.985Z,4.40
2022-12-06T23:27:55.837Z,5.30
2022-12-06T23:29:58.569Z,5.20
2022-12-06T23:32:01.498Z,5.20
2022-12-06T23:34:05.441Z,5.30
2022-12-06T23:36:10.381Z,5.30
2022-12-06T23:38:13.074Z,5.30
2022-12-06T23:40:15.700Z,5.30
2022-12-06T23:42:18.384Z,5.30
2022-12-06T23:44:21.025Z,5.30
2022-12-06T23:46:25.598Z,5.30
2022-12-06T23:48:29.794Z,5.30
2022-12-06T23:50:32.397Z,5.30
2022-12-06T23:52:34.957Z,5.40
2022-12-06T23:54:37.689Z,4.80
2022-12-06T23:56:40.938Z,5.40
2022-12-06T23:58:44.046Z,5.40
